KPHF/PHF METAR and TAF weather

Enter ICAO airport designator
Station Type Date Time Source
KPHF METAR 2024/06/15 22:54 UTC NOAA

KPHF 152254Z 07010KT 10SM CLR 26/14 A3006 RMK AO2 SLP177 T02610144


Station Type Date Time Source
KPHF Decoded METAR 2024/06/15 22:54 UTC NOAA

WILLIAMSBURG INTERNATIONAL AIRPORT , VA, United States (KPHF) 37-08N 76-30W 12M
Jun 15, 2024 - 06:54 PM EDT / 2024.06.15 2254 UTC
Wind: from the ENE (070 degrees) at 12 MPH (10 KT):0
Visibility: 10 mile(s):0
Sky conditions: clear
Temperature: 79.0 F (26.1 C)
Dew Point: 57.9 F (14.4 C)
Relative Humidity: 48%
Pressure (altimeter): 30.06 in. Hg (1017 hPa)
ob: KPHF 152254Z 07010KT 10SM CLR 26/14 A3006 RMK AO2 SLP177 T02610144
cycle: 23

Station Type Date Time Source
KPHF TAF 2024/06/15 19:58 UTC NOAA